Pagrindinis puslapis
METAR-TAF:

METAR-TAF

Oro uostai :

Manokotak, Aliaska, Jungtinės Amerikos Valstijos

platuma: 58-59-19N, ilguma: 159-02-56W, Aukštis: 16 m

Dabartinis oras

Ataskaita buvo paskelbta 38 minutes, ne 21:56 UTC
Vėjas 18 kt iš Šiaurės Rytų su gūsio iki 24 kt
Temperatūra 11°C
Drėgmė 82%
Slėgis 984 hPa
Matomumas: 12.9 km
Apsiniaukę ne aukštis 2600 ft

METAR: PAMB 302156Z AUTO 04018G24KT 8SM OVC026 11/08 A2906 RMK AO2 RAE17 SLP845 P0000 T01110078 $

Laikas: 14:34 (22:34 UTC)


TAF: trūkstamas

Orai ataskaitas ir orų prognozės (METAR, TAF).

turimą stotys yra geltonos ir raudonos taškus žemėlapyje.

Perkelti pele per norėdami pamatyti stoties vardą.

Tada spustelėkite, norėdami matyti oro stebėjimo ir prognozės.

Norėdami pakeisti žemėlapį: spustelėkite ant žalios mygtukų su juodo kryžiaus žemyn,; žalią mygtuką su brūkšneliu, jei norite nutolinti; arba žalių rodyklių gretimoms žemėlapius.


METAR-TAF: